Time;durP1;ratioP1;P1;durP2;ratioP2;P2;SDS_P1;SDS_P2;PMS_P1;PMS_P2;Temp;Humidity;BMP_temperature;BMP_pressure;BME280_temperature;BME280_humidity;BME280_pressure;Samples;Min_cycle;Max_cycle;Signal;HPM_P1;HPM_P2
2021/05/17 00:01:05;;;;;;;2.70;1.80;;;;;;;;;;143738;585;46022;-58
2021/05/17 00:03:33;;;;;;;4.10;1.55;;;;;;;;;;143734;583;46019;-60
2021/05/17 00:06:00;;;;;;;4.45;1.98;;;;;;;;;;143742;578;46012;-59
2021/05/17 00:08:27;;;;;;;3.53;1.77;;;;;;;;;;143740;649;46018;-59
2021/05/17 00:10:54;;;;;;;4.15;1.87;;;;;;;;;;143739;569;46010;-59
2021/05/17 00:13:21;;;;;;;2.70;1.95;;;;;;;;;;143740;573;46016;-59
2021/05/17 00:15:49;;;;;;;8.00;1.80;;;;;;;;;;143743;589;45022;-58
2021/05/17 00:18:16;;;;;;;3.95;2.53;;;;;;;;;;143740;565;46019;-58
2021/05/17 00:20:43;;;;;;;3.95;1.98;;;;;;;;;;143738;570;46010;-58
2021/05/17 00:23:10;;;;;;;4.22;1.77;;;;;;;;;;143740;597;46016;-58
2021/05/17 00:25:38;;;;;;;3.50;1.52;;;;;;;;;;143742;653;46013;-58
2021/05/17 00:28:06;;;;;;;7.78;2.05;;;;;;;;;;143734;620;46018;-57
2021/05/17 00:30:33;;;;;;;4.65;1.87;;;;;;;;;;143740;592;46010;-59
2021/05/17 00:33:01;;;;;;;3.30;1.75;;;;;;;;;;143741;578;46017;-58
2021/05/17 00:35:29;;;;;;;4.87;2.37;;;;;;;;;;143743;591;45023;-59
2021/05/17 00:37:57;;;;;;;3.60;1.58;;;;;;;;;;143740;641;46018;-58
2021/05/17 00:40:24;;;;;;;2.42;2.10;;;;;;;;;;143736;579;47921;-58
2021/05/17 00:42:52;;;;;;;7.60;2.50;;;;;;;;;;143740;699;46019;-58
2021/05/17 00:45:20;;;;;;;5.45;2.42;;;;;;;;;;143742;569;45022;-60
2021/05/17 00:47:50;;;;;;;4.10;2.35;;;;;;;;;;143738;579;46020;-60
2021/05/17 00:50:23;;;;;;;4.65;2.03;;;;;;;;;;143739;604;46010;-59
2021/05/17 00:52:52;;;;;;;3.85;2.53;;;;;;;;;;143733;571;46018;-59
2021/05/17 00:55:19;;;;;;;4.90;2.47;;;;;;;;;;143742;587;45025;-60
2021/05/17 00:57:46;;;;;;;2.70;2.35;;;;;;;;;;143739;662;46019;-59
2021/05/17 01:00:16;;;;;;;5.03;1.95;;;;;;;;;;143740;667;46010;-60
2021/05/17 01:02:43;;;;;;;2.25;1.70;;;;;;;;;;143742;586;46016;-59
2021/05/17 01:05:11;;;;;;;6.37;1.65;;;;;;;;;;143743;590;45023;-60
2021/05/17 01:07:44;;;;;;;3.55;1.62;;;;;;;;;;143740;617;46018;-60
2021/05/17 01:10:20;;;;;;;4.35;1.77;;;;;;;;;;143741;618;46022;-58
2021/05/17 01:12:49;;;;;;;2.30;1.73;;;;;;;;;;143743;712;45019;-58
2021/05/17 01:15:17;;;;;;;3.83;1.95;;;;;;;;;;143744;598;45022;-57
2021/05/17 01:17:45;;;;;;;5.70;1.77;;;;;;;;;;143733;617;46019;-58
2021/05/17 01:20:15;;;;;;;4.78;1.87;;;;;;;;;;143740;597;46010;-58
2021/05/17 01:22:53;;;;;;;3.47;1.48;;;;;;;;;;143742;570;46016;-58
2021/05/17 01:25:23;;;;;;;1.50;1.30;;;;;;;;;;143744;704;45023;-58
2021/05/17 01:27:51;;;;;;;6.30;1.85;;;;;;;;;;143740;652;46018;-59
2021/05/17 01:30:19;;;;;;;3.08;1.67;;;;;;;;;;143742;641;46010;-58
2021/05/17 01:32:47;;;;;;;3.30;1.75;;;;;;;;;;143742;720;46017;-57
2021/05/17 01:35:14;;;;;;;3.50;1.50;;;;;;;;;;143743;612;45030;-58
2021/05/17 01:37:42;;;;;;;7.40;2.60;;;;;;;;;;143737;574;46020;-58
2021/05/17 01:40:10;;;;;;;3.37;1.90;;;;;;;;;;143742;619;46010;-58
2021/05/17 01:42:41;;;;;;;4.32;2.03;;;;;;;;;;143736;570;46016;-57
2021/05/17 01:45:09;;;;;;;3.85;1.50;;;;;;;;;;143744;601;45022;-58
2021/05/17 01:47:41;;;;;;;3.22;1.50;;;;;;;;;;143740;604;46020;-57
2021/05/17 01:50:14;;;;;;;2.60;1.37;;;;;;;;;;143744;592;46010;-59
2021/05/17 01:52:41;;;;;;;3.15;1.55;;;;;;;;;;143743;590;46010;-58
2021/05/17 01:55:10;;;;;;;10.98;4.53;;;;;;;;;;143744;601;45022;-58
2021/05/17 01:57:38;;;;;;;9.02;3.90;;;;;;;;;;143740;572;46018;-59
2021/05/17 02:00:07;;;;;;;5.07;3.25;;;;;;;;;;143740;569;46022;-59
2021/05/17 02:02:36;;;;;;;3.25;1.80;;;;;;;;;;143738;682;47015;-58
2021/05/17 02:05:03;;;;;;;4.07;2.17;;;;;;;;;;143744;570;45023;-58
2021/05/17 02:07:30;;;;;;;4.70;2.28;;;;;;;;;;143735;701;46018;-58
2021/05/17 02:10:00;;;;;;;2.85;1.98;;;;;;;;;;143740;714;46011;-58
2021/05/17 02:12:31;;;;;;;3.03;2.10;;;;;;;;;;143742;585;45019;-58
2021/05/17 02:14:58;;;;;;;2.30;1.60;;;;;;;;;;143742;615;46012;-57
2021/05/17 02:17:26;;;;;;;2.33;1.65;;;;;;;;;;143740;617;46019;-58
2021/05/17 02:19:53;;;;;;;3.05;1.73;;;;;;;;;;143739;574;46010;-58
2021/05/17 02:22:21;;;;;;;3.70;1.90;;;;;;;;;;143740;569;46018;-58
2021/05/17 02:24:49;;;;;;;9.15;1.73;;;;;;;;;;143744;578;45023;-57
2021/05/17 02:27:17;;;;;;;4.35;2.08;;;;;;;;;;143741;592;46018;-58
2021/05/17 02:29:45;;;;;;;5.10;2.35;;;;;;;;;;143742;588;46010;-58
2021/05/17 02:32:22;;;;;;;4.53;2.17;;;;;;;;;;143734;573;46017;-58
2021/05/17 02:34:50;;;;;;;2.80;1.70;;;;;;;;;;143742;613;46012;-58
2021/05/17 02:37:18;;;;;;;10.25;2.28;;;;;;;;;;143741;565;46018;-58
2021/05/17 02:39:45;;;;;;;4.75;2.08;;;;;;;;;;143741;585;46022;-59
2021/05/17 02:42:18;;;;;;;3.50;1.90;;;;;;;;;;143743;584;46016;-59
2021/05/17 02:44:46;;;;;;;1.73;1.25;;;;;;;;;;143744;575;45022;-60
2021/05/17 02:47:13;;;;;;;2.87;1.90;;;;;;;;;;143741;580;46019;-59
2021/05/17 02:49:41;;;;;;;4.87;2.12;;;;;;;;;;143739;569;46023;-59
2021/05/17 02:52:08;;;;;;;6.37;2.37;;;;;;;;;;143742;727;46016;-60
2021/05/17 02:54:39;;;;;;;3.62;2.30;;;;;;;;;;143744;570;45023;-59
2021/05/17 02:57:13;;;;;;;6.05;2.53;;;;;;;;;;143734;593;46018;-61
2021/05/17 03:00:27;;;;;;;9.65;2.90;;;;;;;;;;143742;569;46010;-60
2021/05/17 03:03:22;;;;;;;4.47;2.75;;;;;;;;;;143743;579;46016;-60
2021/05/17 03:06:12;;;;;;;12.77;4.15;;;;;;;;;;143742;573;46022;-61
2021/05/17 03:08:57;;;;;;;8.25;3.55;;;;;;;;;;143741;605;46018;-60
2021/05/17 03:11:25;;;;;;;11.20;3.58;;;;;;;;;;143738;589;46011;-61
2021/05/17 03:13:53;;;;;;;7.82;3.65;;;;;;;;;;143739;601;46018;-60
2021/05/17 03:16:25;;;;;;;3.72;2.58;;;;;;;;;;143744;624;46022;-60
2021/05/17 03:18:54;;;;;;;9.93;3.53;;;;;;;;;;143741;642;46019;-60
2021/05/17 03:21:24;;;;;;;11.35;3.83;;;;;;;;;;143741;575;46022;-60
2021/05/17 03:23:53;;;;;;;8.18;3.33;;;;;;;;;;143737;581;46017;-59
2021/05/17 03:26:21;;;;;;;12.77;4.20;;;;;;;;;;143746;644;45023;-60
2021/05/17 03:28:49;;;;;;;9.30;4.70;;;;;;;;;;143743;610;46018;-59
2021/05/17 03:31:16;;;;;;;6.05;3.40;;;;;;;;;;143743;585;45027;-60
2021/05/17 03:33:43;;;;;;;7.72;3.83;;;;;;;;;;143742;672;46019;-59
2021/05/17 03:36:10;;;;;;;10.13;4.68;;;;;;;;;;143746;566;45022;-60
2021/05/17 03:38:38;;;;;;;8.70;4.40;;;;;;;;;;143742;620;46018;-59
2021/05/17 03:41:06;;;;;;;4.68;2.60;;;;;;;;;;143738;594;46010;-60
2021/05/17 03:43:34;;;;;;;7.07;3.42;;;;;;;;;;143744;578;46014;-60
2021/05/17 03:46:01;;;;;;;7.30;3.78;;;;;;;;;;143745;598;46022;-59
2021/05/17 03:48:28;;;;;;;12.05;4.72;;;;;;;;;;143736;573;46018;-60
2021/05/17 03:50:55;;;;;;;11.12;4.00;;;;;;;;;;143740;594;46010;-59
2021/05/17 03:53:22;;;;;;;8.43;4.03;;;;;;;;;;143744;648;46017;-60
2021/05/17 03:55:49;;;;;;;10.88;4.68;;;;;;;;;;143745;598;46012;-58
2021/05/17 03:58:16;;;;;;;10.27;4.28;;;;;;;;;;143742;628;46018;-59
2021/05/17 04:00:43;;;;;;;19.40;5.03;;;;;;;;;;143742;570;46010;-59
2021/05/17 04:03:16;;;;;;;11.45;3.78;;;;;;;;;;143742;590;46018;-59
2021/05/17 04:06:04;;;;;;;12.37;4.75;;;;;;;;;;143746;626;45022;-59
2021/05/17 04:14:12;;;;;;;14.38;4.03;;;;;;;;;;143738;613;45906;-59
2021/05/17 04:16:38;;;;;;;10.35;3.80;;;;;;;;;;143742;592;46022;-59
2021/05/17 04:19:06;;;;;;;15.20;4.30;;;;;;;;;;143743;624;46018;-60
2021/05/17 04:21:33;;;;;;;15.90;4.10;;;;;;;;;;143740;654;46010;-60
2021/05/17 04:23:59;;;;;;;10.13;3.35;;;;;;;;;;143742;606;46017;-58
2021/05/17 04:26:26;;;;;;;8.85;3.42;;;;;;;;;;143744;619;45023;-60
2021/05/17 04:28:53;;;;;;;6.25;2.80;;;;;;;;;;143742;624;46018;-59
2021/05/17 04:31:21;;;;;;;5.60;2.85;;;;;;;;;;143742;564;46010;-60
2021/05/17 04:33:47;;;;;;;12.20;3.30;;;;;;;;;;143744;617;46016;-60
2021/05/17 04:36:14;;;;;;;9.73;4.22;;;;;;;;;;143743;585;45022;-58
2021/05/17 04:38:41;;;;;;;12.70;4.00;;;;;;;;;;143736;577;46019;-58
2021/05/17 04:41:08;;;;;;;26.92;4.10;;;;;;;;;;143741;642;46010;-59
2021/05/17 04:43:35;;;;;;;8.68;3.37;;;;;;;;;;143741;565;46018;-59
2021/05/17 04:46:02;;;;;;;10.07;3.92;;;;;;;;;;143745;580;45022;-59
2021/05/17 04:48:29;;;;;;;8.55;4.15;;;;;;;;;;143743;626;46018;-59
2021/05/17 04:50:57;;;;;;;9.55;4.12;;;;;;;;;;143741;569;46010;-58
2021/05/17 04:53:24;;;;;;;7.22;3.97;;;;;;;;;;143743;591;46017;-59
2021/05/17 04:55:51;;;;;;;6.82;4.43;;;;;;;;;;143743;569;46012;-59
2021/05/17 04:58:18;;;;;;;7.22;3.90;;;;;;;;;;143742;586;46018;-59
2021/05/17 05:00:45;;;;;;;13.62;4.32;;;;;;;;;;143743;635;46023;-58
2021/05/17 05:03:12;;;;;;;8.80;5.30;;;;;;;;;;143736;569;46016;-58
2021/05/17 05:05:39;;;;;;;15.25;4.45;;;;;;;;;;143745;585;45029;-58
2021/05/17 05:08:06;;;;;;;9.52;4.12;;;;;;;;;;143742;655;46019;-58
2021/05/17 05:10:33;;;;;;;8.07;4.72;;;;;;;;;;143742;583;46023;-59
2021/05/17 05:13:09;;;;;;;9.95;4.45;;;;;;;;;;143744;610;46016;-60
2021/05/17 05:15:36;;;;;;;12.43;5.03;;;;;;;;;;143744;576;46013;-60
2021/05/17 05:18:04;;;;;;;9.93;5.78;;;;;;;;;;143742;630;46019;-59
2021/05/17 05:20:31;;;;;;;17.83;5.72;;;;;;;;;;143742;574;46010;-60
2021/05/17 05:22:58;;;;;;;10.27;4.90;;;;;;;;;;143744;905;45032;-59
2021/05/17 05:25:29;;;;;;;14.45;5.87;;;;;;;;;;143743;586;46023;-57
2021/05/17 05:27:57;;;;;;;13.20;5.37;;;;;;;;;;143737;595;46018;-57
2021/05/17 05:33:15;;;;;;;8.73;4.37;;;;;;;;;;143741;626;46008;-57
2021/05/17 05:35:43;;;;;;;11.80;3.60;;;;;;;;;;143745;566;45022;-57
2021/05/17 05:38:11;;;;;;;9.55;3.72;;;;;;;;;;143742;614;46019;-57
2021/05/17 05:40:38;;;;;;;12.02;3.95;;;;;;;;;;143740;569;46010;-57
2021/05/17 05:43:05;;;;;;;5.60;2.95;;;;;;;;;;143742;591;46016;-59
2021/05/17 05:45:34;;;;;;;9.40;2.72;;;;;;;;;;143744;629;45022;-58
2021/05/17 05:48:01;;;;;;;6.57;2.70;;;;;;;;;;143743;594;46018;-58
2021/05/17 05:50:28;;;;;;;7.18;2.97;;;;;;;;;;143743;582;46022;-58
2021/05/17 05:52:55;;;;;;;7.22;3.53;;;;;;;;;;143736;579;46018;-60
2021/05/17 05:55:22;;;;;;;7.18;3.15;;;;;;;;;;143745;607;45023;-59
2021/05/17 05:57:49;;;;;;;5.90;2.87;;;;;;;;;;143743;612;46018;-57
2021/05/17 06:00:18;;;;;;;6.15;2.80;;;;;;;;;;143741;630;46022;-58
2021/05/17 06:02:45;;;;;;;7.30;3.20;;;;;;;;;;143742;581;46016;-58
2021/05/17 06:05:12;;;;;;;7.60;3.42;;;;;;;;;;143745;569;45028;-59
2021/05/17 06:07:39;;;;;;;10.23;3.85;;;;;;;;;;143742;586;46019;-59
2021/05/17 06:10:09;;;;;;;8.50;3.30;;;;;;;;;;143742;590;46010;-58
2021/05/17 06:12:38;;;;;;;10.93;4.18;;;;;;;;;;143745;606;45040;-59
2021/05/17 06:15:05;;;;;;;8.25;3.90;;;;;;;;;;143742;582;46013;-58
2021/05/17 06:17:33;;;;;;;9.60;3.45;;;;;;;;;;143736;633;46019;-59
2021/05/17 06:20:00;;;;;;;12.25;4.22;;;;;;;;;;143740;608;46010;-59
2021/05/17 06:22:28;;;;;;;8.05;4.00;;;;;;;;;;143743;592;46017;-59
2021/05/17 06:24:57;;;;;;;10.48;3.70;;;;;;;;;;143745;634;45023;-59
2021/05/17 06:27:25;;;;;;;6.30;2.97;;;;;;;;;;143742;585;46018;-59
2021/05/17 06:29:54;;;;;;;12.15;3.80;;;;;;;;;;143743;624;46010;-60
2021/05/17 06:32:23;;;;;;;7.28;3.33;;;;;;;;;;143739;600;46018;-60
2021/05/17 06:34:50;;;;;;;8.38;2.70;;;;;;;;;;143743;637;46022;-60
2021/05/17 06:37:17;;;;;;;6.82;2.70;;;;;;;;;;143741;611;46019;-61
2021/05/17 06:39:45;;;;;;;4.15;2.00;;;;;;;;;;143742;564;46023;-60
2021/05/17 06:42:12;;;;;;;4.68;2.12;;;;;;;;;;143737;625;46016;-60
2021/05/17 06:44:40;;;;;;;9.35;3.05;;;;;;;;;;143745;586;45023;-61
2021/05/17 06:47:10;;;;;;;5.00;1.95;;;;;;;;;;143741;654;46018;-61
2021/05/17 06:49:38;;;;;;;8.82;2.30;;;;;;;;;;143743;623;46022;-61
2021/05/17 06:52:05;;;;;;;7.62;3.85;;;;;;;;;;143740;694;46018;-61
2021/05/17 06:54:32;;;;;;;6.78;1.95;;;;;;;;;;143745;576;45024;-60
2021/05/17 06:59:47;;;;;;;4.40;2.85;;;;;;;;;;143743;594;46023;-61
2021/05/17 07:02:22;;;;;;;5.85;2.50;;;;;;;;;;143742;571;46016;-61
2021/05/17 07:04:51;;;;;;;5.82;3.00;;;;;;;;;;143745;594;45022;-63
2021/05/17 07:07:32;;;;;;;6.15;2.67;;;;;;;;;;143736;591;46019;-61
2021/05/17 07:12:44;;;;;;;5.37;3.25;;;;;;;;;;143743;601;45020;-61
2021/05/17 07:15:11;;;;;;;7.90;4.30;;;;;;;;;;143745;642;45023;-62
2021/05/17 07:17:38;;;;;;;5.37;1.62;;;;;;;;;;143741;612;46021;-62
2021/05/17 07:20:07;;;;;;;7.32;2.30;;;;;;;;;;143741;671;46022;-61
2021/05/17 07:25:18;;;;;;;5.22;2.47;;;;;;;;;;143743;594;46023;-61
2021/05/17 07:27:45;;;;;;;6.87;2.83;;;;;;;;;;143743;651;46018;-62
2021/05/17 07:30:13;;;;;;;7.25;3.45;;;;;;;;;;143742;610;46010;-61
2021/05/17 07:32:40;;;;;;;7.47;1.92;;;;;;;;;;143737;579;46016;-62
2021/05/17 07:35:08;;;;;;;4.55;2.33;;;;;;;;;;143745;607;45022;-62
2021/05/17 07:37:35;;;;;;;6.03;2.28;;;;;;;;;;143740;586;47019;-62
2021/05/17 07:40:02;;;;;;;5.43;2.90;;;;;;;;;;143741;652;46023;-61
2021/05/17 07:42:29;;;;;;;4.68;1.58;;;;;;;;;;143740;692;46016;-61
2021/05/17 07:44:56;;;;;;;4.95;2.75;;;;;;;;;;143745;566;45023;-61
2021/05/17 07:47:23;;;;;;;4.50;2.17;;;;;;;;;;143743;571;46018;-62
2021/05/17 07:49:53;;;;;;;5.37;1.85;;;;;;;;;;143743;640;46022;-62
2021/05/17 07:52:22;;;;;;;8.80;2.47;;;;;;;;;;143740;582;46019;-63
2021/05/17 07:54:49;;;;;;;5.45;2.08;;;;;;;;;;143743;687;46023;-61
2021/05/17 07:57:16;;;;;;;4.68;2.05;;;;;;;;;;143735;678;46018;-62
2021/05/17 07:59:43;;;;;;;8.82;5.25;;;;;;;;;;143741;591;46011;-62
2021/05/17 08:02:11;;;;;;;7.32;5.18;;;;;;;;;;143739;566;46020;-60
2021/05/17 08:04:38;;;;;;;7.85;3.47;;;;;;;;;;143739;616;46020;-62
2021/05/17 08:07:04;;;;;;;5.15;1.95;;;;;;;;;;143743;570;45020;-63
2021/05/17 08:09:31;;;;;;;7.87;2.80;;;;;;;;;;143740;606;46010;-62
2021/05/17 08:11:58;;;;;;;7.05;3.90;;;;;;;;;;143741;663;46016;-63
2021/05/17 08:14:26;;;;;;;4.80;2.40;;;;;;;;;;143744;583;45023;-63
2021/05/17 08:16:54;;;;;;;6.18;2.42;;;;;;;;;;143740;732;46018;-62
2021/05/17 08:19:21;;;;;;;13.23;7.12;;;;;;;;;;143741;642;46010;-62
2021/05/17 08:21:48;;;;;;;8.85;5.72;;;;;;;;;;143735;583;46018;-62
2021/05/17 08:24:16;;;;;;;7.22;3.10;;;;;;;;;;143743;569;45023;-64
2021/05/17 08:26:43;;;;;;;10.30;4.78;;;;;;;;;;143739;582;46020;-63
2021/05/17 08:29:10;;;;;;;6.20;2.65;;;;;;;;;;143741;608;46010;-63
2021/05/17 08:31:37;;;;;;;13.45;4.82;;;;;;;;;;143740;592;46016;-63
2021/05/17 08:34:04;;;;;;;12.13;7.45;;;;;;;;;;143741;564;46012;-62
2021/05/17 08:36:31;;;;;;;10.00;5.90;;;;;;;;;;143739;593;46019;-62
2021/05/17 08:38:58;;;;;;;10.00;5.35;;;;;;;;;;143738;572;46010;-62
2021/05/17 08:41:25;;;;;;;10.82;6.12;;;;;;;;;;143738;657;46016;-62
2021/05/17 08:43:53;;;;;;;8.18;4.45;;;;;;;;;;143744;626;45023;-63
2021/05/17 08:46:20;;;;;;;10.23;6.07;;;;;;;;;;143734;654;46018;-62
2021/05/17 08:48:47;;;;;;;10.77;6.35;;;;;;;;;;143741;678;46010;-63
2021/05/17 08:51:23;;;;;;;8.25;2.78;;;;;;;;;;143738;574;46017;-63
2021/05/17 08:53:51;;;;;;;10.07;5.40;;;;;;;;;;143743;632;46023;-61
2021/05/17 08:56:19;;;;;;;5.20;2.90;;;;;;;;;;143740;585;46018;-63
2021/05/17 08:58:46;;;;;;;8.68;2.67;;;;;;;;;;143740;566;46010;-62
2021/05/17 09:01:14;;;;;;;6.18;2.62;;;;;;;;;;143741;600;46016;-63
2021/05/17 09:03:41;;;;;;;7.37;2.90;;;;;;;;;;143744;649;45022;-64
2021/05/17 09:06:11;;;;;;;5.50;1.87;;;;;;;;;;143740;768;46019;-64
2021/05/17 09:08:45;;;;;;;3.70;2.45;;;;;;;;;;143742;619;46023;-62
2021/05/17 09:11:12;;;;;;;8.65;3.62;;;;;;;;;;143736;580;46016;-63
2021/05/17 09:13:39;;;;;;;6.03;2.80;;;;;;;;;;143743;570;46013;-63
2021/05/17 09:16:06;;;;;;;8.48;3.37;;;;;;;;;;143742;569;46018;-63
2021/05/17 09:18:32;;;;;;;5.28;3.47;;;;;;;;;;143740;623;46010;-63
2021/05/17 09:21:05;;;;;;;7.65;5.55;;;;;;;;;;143740;643;46016;-63
2021/05/17 09:23:34;;;;;;;6.20;3.08;;;;;;;;;;143741;584;46022;-62
2021/05/17 09:26:26;;;;;;;3.80;2.42;;;;;;;;;;143740;583;46018;-62
2021/05/17 09:28:53;;;;;;;7.95;5.43;;;;;;;;;;143739;608;46011;-61
2021/05/17 09:31:25;;;;;;;11.45;4.65;;;;;;;;;;143742;591;46016;-59
2021/05/17 09:33:57;;;;;;;12.00;5.70;;;;;;;;;;143742;703;45022;-60
2021/05/17 09:36:31;;;;;;;14.55;7.37;;;;;;;;;;143734;672;46019;-59
2021/05/17 09:39:18;;;;;;;18.42;10.63;;;;;;;;;;143736;613;46010;-60
2021/05/17 09:41:54;;;;;;;16.77;5.80;;;;;;;;;;143733;586;46018;-60
2021/05/17 09:44:41;;;;;;;11.12;6.32;;;;;;;;;;143741;599;45023;-61
2021/05/17 09:47:12;;;;;;;11.80;8.52;;;;;;;;;;143740;634;46018;-60
2021/05/17 09:49:42;;;;;;;10.18;5.85;;;;;;;;;;143737;571;46010;-60
2021/05/17 09:52:21;;;;;;;11.40;5.97;;;;;;;;;;143738;727;46019;-61
2021/05/17 09:54:59;;;;;;;9.95;3.37;;;;;;;;;;143742;576;46022;-58
2021/05/17 09:57:29;;;;;;;6.40;2.65;;;;;;;;;;143741;601;46018;-57
2021/05/17 09:59:59;;;;;;;16.25;3.40;;;;;;;;;;143736;588;46010;-58
2021/05/17 10:02:30;;;;;;;4.37;2.58;;;;;;;;;;143734;599;46016;-58
2021/05/17 10:05:08;;;;;;;14.02;3.33;;;;;;;;;;143743;591;45023;-57
2021/05/17 10:07:35;;;;;;;14.40;2.80;;;;;;;;;;143740;579;46018;-58
2021/05/17 10:10:05;;;;;;;4.70;2.53;;;;;;;;;;143737;591;46010;-58
2021/05/17 10:12:32;;;;;;;7.75;2.80;;;;;;;;;;143740;566;46018;-57
2021/05/17 10:14:59;;;;;;;12.32;3.65;;;;;;;;;;143743;623;45023;-57
2021/05/17 10:17:26;;;;;;;7.10;3.12;;;;;;;;;;143740;580;46018;-58
2021/05/17 10:19:53;;;;;;;7.45;2.67;;;;;;;;;;143740;586;46010;-57
2021/05/17 10:22:20;;;;;;;7.53;3.12;;;;;;;;;;143742;628;46016;-58
2021/05/17 10:24:47;;;;;;;6.87;2.25;;;;;;;;;;143744;572;45022;-57
2021/05/17 10:27:15;;;;;;;6.65;2.70;;;;;;;;;;143734;565;46018;-56
2021/05/17 10:29:43;;;;;;;9.77;3.97;;;;;;;;;;143738;603;46023;-58
2021/05/17 10:32:10;;;;;;;6.85;2.50;;;;;;;;;;143741;569;46016;-57
2021/05/17 10:35:07;;;;;;;8.82;3.05;;;;;;;;;;143743;670;45022;-57
2021/05/17 10:37:37;;;;;;;7.10;2.65;;;;;;;;;;143741;638;46018;-57
2021/05/17 10:40:05;;;;;;;10.48;3.35;;;;;;;;;;143738;569;46010;-57
2021/05/17 10:42:54;;;;;;;7.07;2.72;;;;;;;;;;143740;632;45018;-56
2021/05/17 10:48:26;;;;;;;3.95;2.05;;;;;;;;;;143742;564;45020;-55
2021/05/17 10:51:14;;;;;;;10.98;2.40;;;;;;;;;;143739;594;46022;-56
2021/05/17 10:53:59;;;;;;;10.65;2.30;;;;;;;;;;143735;569;45018;-56
2021/05/17 11:02:33;;;;;;;4.53;2.37;;;;;;;;;;143741;599;46022;-57
2021/05/17 11:05:23;;;;;;;9.07;2.60;;;;;;;;;;143742;619;46016;-58
2021/05/17 11:07:54;;;;;;;4.37;2.22;;;;;;;;;;143743;585;45025;-57
2021/05/17 11:10:58;;;;;;;5.05;2.72;;;;;;;;;;143742;606;46018;-56
2021/05/17 11:13:32;;;;;;;4.35;2.17;;;;;;;;;;143740;579;46010;-58
2021/05/17 11:16:08;;;;;;;9.63;2.97;;;;;;;;;;143738;606;46019;-56
2021/05/17 11:18:38;;;;;;;10.77;3.10;;;;;;;;;;143743;580;46022;-58
2021/05/17 11:21:27;;;;;;;6.28;2.53;;;;;;;;;;143734;645;46020;-57
2021/05/17 11:24:01;;;;;;;3.42;2.00;;;;;;;;;;143740;600;46010;-58
2021/05/17 11:26:30;;;;;;;4.60;2.08;;;;;;;;;;143741;651;46016;-57
2021/05/17 11:29:00;;;;;;;6.18;2.30;;;;;;;;;;143743;705;46012;-57
2021/05/17 11:31:41;;;;;;;7.72;1.92;;;;;;;;;;143742;634;46018;-57
2021/05/17 11:34:16;;;;;;;5.80;1.70;;;;;;;;;;143738;587;46022;-58
2021/05/17 11:37:08;;;;;;;2.62;1.52;;;;;;;;;;143743;680;46016;-57
2021/05/17 11:39:35;;;;;;;8.68;3.22;;;;;;;;;;143744;582;45022;-57
2021/05/17 11:42:08;;;;;;;6.43;2.30;;;;;;;;;;143740;627;46020;-57
2021/05/17 11:45:12;;;;;;;6.55;3.15;;;;;;;;;;143738;565;46010;-56
2021/05/17 11:47:39;;;;;;;2.78;1.77;;;;;;;;;;143735;601;46016;-58
2021/05/17 11:50:08;;;;;;;5.55;2.35;;;;;;;;;;143743;620;45023;-57
2021/05/17 11:52:36;;;;;;;8.77;3.22;;;;;;;;;;143741;612;46018;-58
2021/05/17 11:55:07;;;;;;;6.95;3.08;;;;;;;;;;143741;603;46010;-58
2021/05/17 11:57:36;;;;;;;5.22;2.15;;;;;;;;;;143740;613;46018;-64
2021/05/17 12:00:12;;;;;;;6.60;2.20;;;;;;;;;;143744;587;45023;-56
2021/05/17 12:02:51;;;;;;;3.75;1.98;;;;;;;;;;143740;590;46018;-56
2021/05/17 12:05:20;;;;;;;4.50;2.15;;;;;;;;;;143738;658;46011;-55
2021/05/17 12:07:49;;;;;;;5.22;2.12;;;;;;;;;;143738;572;46018;-54
2021/05/17 12:10:19;;;;;;;8.60;2.42;;;;;;;;;;143743;596;46022;-55
2021/05/17 12:12:46;;;;;;;4.12;2.22;;;;;;;;;;143734;570;46019;-55
2021/05/17 12:15:18;;;;;;;8.80;3.10;;;;;;;;;;143739;589;46010;-55
2021/05/17 12:17:45;;;;;;;4.85;2.72;;;;;;;;;;143740;585;46016;-57
2021/05/17 12:20:15;;;;;;;4.87;1.98;;;;;;;;;;143743;623;45024;-55
2021/05/17 12:22:44;;;;;;;3.85;2.17;;;;;;;;;;143740;618;46018;-54
2021/05/17 12:25:23;;;;;;;8.55;2.50;;;;;;;;;;143739;589;46022;-56
2021/05/17 12:27:51;;;;;;;3.53;2.33;;;;;;;;;;143739;585;46018;-60
2021/05/17 12:30:25;;;;;;;11.23;3.22;;;;;;;;;;143740;602;46023;-60
2021/05/17 12:32:53;;;;;;;9.98;3.10;;;;;;;;;;143737;616;46020;-60
2021/05/17 12:35:34;;;;;;;4.15;2.20;;;;;;;;;;143738;611;46011;-59
2021/05/17 12:38:15;;;;;;;9.65;2.40;;;;;;;;;;143734;588;46016;-59
2021/05/17 12:40:46;;;;;;;4.95;2.70;;;;;;;;;;143743;678;45022;-59
2021/05/17 12:43:36;;;;;;;12.43;2.60;;;;;;;;;;143740;641;48019;-57
2021/05/17 12:46:08;;;;;;;3.58;2.00;;;;;;;;;;143737;588;46022;-58
2021/05/17 12:48:40;;;;;;;4.85;2.37;;;;;;;;;;143740;569;46018;-60
2021/05/17 12:51:27;;;;;;;3.65;2.05;;;;;;;;;;143743;597;46012;-60
2021/05/17 12:54:09;;;;;;;7.28;2.05;;;;;;;;;;143741;626;46018;-61
2021/05/17 12:56:38;;;;;;;4.30;2.12;;;;;;;;;;143739;606;46010;-59
2021/05/17 12:59:18;;;;;;;4.05;1.67;;;;;;;;;;143739;588;46019;-57
2021/05/17 13:01:45;;;;;;;3.35;1.62;;;;;;;;;;143741;672;46012;-58
2021/05/17 13:04:23;;;;;;;4.95;1.80;;;;;;;;;;143734;639;46018;-59
2021/05/17 13:07:02;;;;;;;4.87;1.60;;;;;;;;;;143737;607;46010;-58
2021/05/17 13:09:32;;;;;;;4.95;2.05;;;;;;;;;;143740;564;46016;-59
2021/05/17 13:12:00;;;;;;;3.53;1.75;;;;;;;;;;143741;596;45022;-58
2021/05/17 13:14:28;;;;;;;5.72;2.17;;;;;;;;;;143741;586;46018;-59
2021/05/17 13:17:03;;;;;;;5.10;2.20;;;;;;;;;;143738;617;45920;-58
2021/05/17 13:20:03;;;;;;;6.20;2.47;;;;;;;;;;143739;564;46018;-58
2021/05/17 13:30:00;;;;;;;7.40;4.03;;;;;;;;;;143740;616;46018;-58
2021/05/17 13:31:05;;;;;;;5.95;3.12;;;;;;;;;;143735;592;46018;-59
2021/05/17 13:33:46;;;;;;;6.32;2.12;;;;;;;;;;143744;575;45022;-58
2021/05/17 13:36:15;;;;;;;9.30;3.70;;;;;;;;;;143737;699;46018;-58
2021/05/17 13:38:52;;;;;;;10.13;4.10;;;;;;;;;;143738;569;46010;-59
2021/05/17 13:41:20;;;;;;;5.00;2.97;;;;;;;;;;143741;619;46017;-59
2021/05/17 13:43:48;;;;;;;8.55;3.47;;;;;;;;;;143742;569;45023;-59
2021/05/17 13:46:16;;;;;;;3.80;2.40;;;;;;;;;;143739;559;46018;-59
2021/05/17 13:48:49;;;;;;;8.70;3.40;;;;;;;;;;143741;593;45023;-59
2021/05/17 13:51:17;;;;;;;8.82;4.57;;;;;;;;;;143741;579;46016;-59
2021/05/17 13:53:44;;;;;;;5.70;2.55;;;;;;;;;;143742;711;45025;-58
2021/05/17 13:56:12;;;;;;;6.85;2.80;;;;;;;;;;143735;551;46018;-59
2021/05/17 13:58:39;;;;;;;4.93;2.00;;;;;;;;;;143739;567;46010;-58
2021/05/17 14:01:06;;;;;;;5.37;2.15;;;;;;;;;;143739;650;46018;-59
2021/05/17 14:03:34;;;;;;;5.90;2.28;;;;;;;;;;143741;571;46012;-59
2021/05/17 14:06:01;;;;;;;5.43;1.70;;;;;;;;;;143741;567;46018;-59
2021/05/17 14:08:28;;;;;;;7.00;2.17;;;;;;;;;;143741;584;46010;-58
2021/05/17 14:10:55;;;;;;;6.55;2.45;;;;;;;;;;143741;706;46018;-59
2021/05/17 14:13:22;;;;;;;14.15;2.50;;;;;;;;;;143743;644;45023;-58
2021/05/17 14:15:49;;;;;;;4.55;1.80;;;;;;;;;;143742;578;46018;-58
2021/05/17 14:18:16;;;;;;;2.35;1.42;;;;;;;;;;143740;606;46022;-59
2021/05/17 14:20:44;;;;;;;3.20;1.33;;;;;;;;;;143734;612;46019;-58
2021/05/17 14:23:11;;;;;;;6.50;1.98;;;;;;;;;;143744;591;45022;-57
2021/05/17 14:25:39;;;;;;;10.52;1.85;;;;;;;;;;143742;648;46018;-58
2021/05/17 14:28:06;;;;;;;4.07;1.60;;;;;;;;;;143739;595;46919;-58
2021/05/17 14:30:33;;;;;;;6.68;1.73;;;;;;;;;;143742;717;46016;-58
2021/05/17 14:33:00;;;;;;;6.10;1.92;;;;;;;;;;143743;589;45022;-58
2021/05/17 14:35:27;;;;;;;3.78;1.23;;;;;;;;;;143741;567;46021;-58
2021/05/17 14:37:54;;;;;;;1.80;1.12;;;;;;;;;;143740;600;46010;-57
2021/05/17 14:40:22;;;;;;;3.22;1.42;;;;;;;;;;143744;579;46016;-58
2021/05/17 14:42:49;;;;;;;3.50;1.55;;;;;;;;;;143744;608;45023;-58
2021/05/17 14:45:16;;;;;;;11.88;2.03;;;;;;;;;;143735;591;46018;-58
2021/05/17 14:47:44;;;;;;;2.30;1.25;;;;;;;;;;143737;597;46022;-59
2021/05/17 14:50:12;;;;;;;5.53;1.37;;;;;;;;;;143739;628;46019;-59
2021/05/17 14:52:39;;;;;;;3.87;1.37;;;;;;;;;;143743;577;45023;-58
2021/05/17 14:55:07;;;;;;;4.07;1.65;;;;;;;;;;143742;724;46020;-58
2021/05/17 14:57:35;;;;;;;5.43;1.83;;;;;;;;;;143742;576;45023;-58
2021/05/17 15:00:04;;;;;;;2.72;1.25;;;;;;;;;;143743;593;46016;-58
2021/05/17 15:02:31;;;;;;;6.00;1.70;;;;;;;;;;143744;639;45022;-58
2021/05/17 15:04:58;;;;;;;9.80;2.03;;;;;;;;;;143741;575;46019;-59
2021/05/17 15:07:25;;;;;;;3.35;1.37;;;;;;;;;;143741;677;46022;-58
2021/05/17 15:09:52;;;;;;;7.28;2.05;;;;;;;;;;143734;659;46018;-58
2021/05/17 15:12:20;;;;;;;4.30;1.45;;;;;;;;;;143745;576;45023;-59
2021/05/17 15:14:47;;;;;;;5.62;1.55;;;;;;;;;;143742;567;46018;-58
2021/05/17 15:17:14;;;;;;;7.25;1.48;;;;;;;;;;143740;569;46010;-58
2021/05/17 15:19:41;;;;;;;11.65;1.80;;;;;;;;;;143743;605;46016;-58
2021/05/17 15:22:08;;;;;;;3.85;1.17;;;;;;;;;;143740;565;46010;-58
2021/05/17 15:24:35;;;;;;;3.28;1.42;;;;;;;;;;143743;585;46018;-59
2021/05/17 15:27:02;;;;;;;5.72;1.70;;;;;;;;;;143740;587;46919;-58
2021/05/17 15:29:29;;;;;;;7.95;1.80;;;;;;;;;;143738;662;46019;-58